• Join FlightAware (Why Join?)
  • Login
  • US Flag 
12:29PM EDT


 

Airport Tracker/Info


-or-


 

Live Flight TrackerFlight Track Log ✈ DAL3673 ✈ 10-Mar-2014 ✈ KMSP - KLSE

Flight Track Log - Related Links

Times and Time Zones

All times are in EDT time to prevent confusion due to time zone crossing. See the DAL3673 flight status page for this flight to view local times or setup timezone preferences in your user account.

Time Position Orientation Groundspeed Altitude Reporting Facility
EDT Latitude Longitude Course Direction KTS MPH feet Rate Location/Type
05:02PM 44.9000 -93.2667 141° Southeast 179 206 2,800  Level Minneapolis TRACON
05:03PM 44.8667 -93.3500 241° Southwest 243 280 4,600 2,520 Climbing Minneapolis TRACON
05:05PM 44.7744 -93.3808 193° South 294 338 9,000 2,580 Climbing Minneapolis Center
05:06PM 44.7217 -93.2772 126° Southeast 342 394 11,000 960 Climbing Minneapolis Center
05:07PM 44.6525 -93.1239 122° Southeast 409 471 11,100  Climbing Minneapolis Center
05:08PM 44.6067 -92.6688 141° Southeast  Level Estimated
05:08PM 44.5881 -92.9833 123° Southeast 427 491 11,100  Level Minneapolis Center
05:09PM 44.5256 -92.8433 122° Southeast 424 488 11,100  Level Minneapolis Center
05:10PM 44.4686 -92.7011 119° Southeast 422 486 11,100  Level Minneapolis Center
05:11PM 44.4117 -92.5583 119° Southeast 422 486 11,100 -60 Level Minneapolis Center
05:12PM 44.3431 -92.3886 119° Southeast 420 483 11,000  Descending Minneapolis Center
05:13PM 44.2853 -92.2467 120° Southeast 421 484 11,100  Climbing Minneapolis Center
05:14PM 44.2278 -92.1050 119° Southeast 421 484 11,100 -60 Level Minneapolis Center
05:15PM 44.1708 -91.9633 119° Southeast 421 484 11,000 -60 Descending Minneapolis Center
05:16PM 44.1133 -91.8217 119° Southeast 421 484 11,000 -300 Level Minneapolis Center
05:17PM 44.0608 -91.6931 120° Southeast 390 449 10,400 -1,140 Descending Minneapolis Center
05:18PM 44.0092 -91.5692 120° Southeast 328 377 8,700 -1,740 Descending Minneapolis Center
05:19PM 43.9628 -91.4628 121° Southeast 305 351 6,900 -2,100 Descending Minneapolis Center
05:20PM 43.9036 -91.3864 137° Southeast 280 322 4,500 -1,800 Descending Minneapolis Center
05:21PM 43.8458 -91.3322 146° Southeast 234 269 3,300 -1,020 Descending Minneapolis Center
05:22PM 43.8008 -91.3064 157° South 191 220 2,500 -780 Descending Minneapolis Center
05:24PM 43.8667 -91.2500 125° Southeast  Level FlightAware Approximate
05:31PM 43.8793 -91.2566 125° Southeast  Level Estimated